Flight Track Log - Related Links

Times and Time Zones

All times are in EDT time to prevent confusion due to time zone crossing. See the N32LA flight status page for this flight to view local times or setup timezone preferences in your user account.

Time Position Orientation Groundspeed Altitude Reporting Facility
EDT Latitude Longitude Course Direction KTS MPH feet Rate Location/Type
Tue 07:27:46 PM 30.6939 -87.4653 32° Northeast 116 133 5,500  Level Jacksonville Center
Tue 07:28:47 PM 30.7217 -87.4450 32° Northeast 117 135 5,500  Level Jacksonville Center
Tue 07:29:54 PM 30.7536 -87.4272 26° Northeast 117 135 5,500  Level Jacksonville Center
Tue 07:30:48 PM 30.7811 -87.4139 23° Northeast 117 135 5,500  Level Jacksonville Center
Tue 07:31:49 PM 30.8111 -87.3936 30° Northeast 117 135 5,500 49 Level Jacksonville Center
Tue 07:32:50 PM 30.8408 -87.3781 24° Northeast 116 133 5,600  Climbing Jacksonville Center
Tue 07:33:51 PM 30.8686 -87.3600 29° Northeast 117 135 5,500 -47 Descending Jacksonville Center
Tue 07:34:57 PM 30.9028 -87.3447 21° North 116 133 5,500  Level Jacksonville Center
Tue 07:35:58 PM 30.9344 -87.3342 16° North 116 133 5,500  Level Jacksonville Center
Tue 07:36:42 PM 30.9578 -87.3183 30° Northeast 115 132 5,500  Level Jacksonville Center
Tue 07:37:05 PM 30.9664 -87.3161 12° North 115 132 5,500  Level Jacksonville Center
Tue 07:37:42 PM 30.9872 -87.3100 14° North 127 146 5,500 62 Level Jacksonville Center
Tue 07:38:42 PM 31.0169 -87.3017 14° North 127 146 5,600 50 Climbing Jacksonville Center
Tue 07:39:42 PM 31.0464 -87.2908 17° North 122 140 5,600  Level Jacksonville Center
Tue 07:40:42 PM 31.0781 -87.2828 12° North 111 128 5,600  Level Jacksonville Center
Tue 07:41:42 PM 31.1078 -87.2672 24° Northeast 106 122 5,600  Level Jacksonville Center
Tue 07:42:42 PM 31.1375 -87.2514 25° Northeast 106 122 5,600  Level Jacksonville Center
Tue 07:43:42 PM 31.1653 -87.2358 26° Northeast 111 128 5,600  Level Jacksonville Center
Tue 07:44:42 PM 31.1972 -87.2203 23° Northeast 111 128 5,600  Level Jacksonville Center
Tue 07:45:42 PM 31.2247 -87.2069 23° Northeast 111 128 5,600 -50 Level Jacksonville Center
Tue 07:46:42 PM 31.2564 -87.1914 23° Northeast 111 128 5,500 -36 Descending Jacksonville Center
Tue 07:48:28 PM 31.3106 -87.1619 25° Northeast 116 133 5,500  Level Atlanta Center
Tue 07:49:28 PM 31.3422 -87.1533 13° North 116 133 5,500  Level Atlanta Center
Tue 07:50:28 PM 31.3736 -87.1469 10° North 111 128 5,500  Level Atlanta Center
Tue 07:51:28 PM 31.4050 -87.1408 North 111 128 5,500 -50 Level Atlanta Center
Tue 07:52:28 PM 31.4367 -87.1347 North 106 122 5,400 -100 Descending Atlanta Center
Tue 07:53:28 PM 31.4681 -87.1258 14° North 106 122 5,300 -50 Descending Atlanta Center
Tue 07:54:28 PM 31.4994 -87.1197 North 106 122 5,300  Level Atlanta Center
Tue 07:55:28 PM 31.5311 -87.1086 17° North 106 122 5,300  Level Atlanta Center
Tue 07:56:28 PM 31.5647 -87.1025 North 111 128 5,300  Level Atlanta Center
Tue 07:57:28 PM 31.6003 -87.0964 North 116 133 5,300  Level Atlanta Center
Tue 07:58:28 PM 31.6317 -87.0900 10° North 116 133 5,300  Level Atlanta Center
Tue 07:59:28 PM 31.6633 -87.0839 North 116 133 5,300 50 Level Atlanta Center
Tue 08:00:28 PM 31.6969 -87.0728 16° North 116 133 5,400 50 Climbing Atlanta Center
Tue 08:01:28 PM 31.7306 -87.0642 12° North 116 133 5,400  Level Atlanta Center
Tue 08:02:28 PM 31.7603 -87.0456 28° Northeast 116 133 5,400 50 Level Atlanta Center
Tue 08:03:28 PM 31.7897 -87.0269 28° Northeast 116 133 5,500 50 Climbing Atlanta Center
Tue 08:04:28 PM 31.8197 -87.0036 33° Northeast 121 139 5,500  Level Atlanta Center
Tue 08:05:28 PM 31.8453 -86.9822 35° Northeast 121 139 5,500  Level Atlanta Center
Tue 08:06:28 PM 31.8708 -86.9564 41° Northeast 116 133 5,500 -50 Level Atlanta Center
Tue 08:07:28 PM 31.9025 -86.9353 30° Northeast 116 133 5,400 -100 Descending Atlanta Center
Tue 08:08:28 PM 31.9303 -86.9167 30° Northeast 121 139 5,300 -50 Descending Atlanta Center
Tue 08:09:28 PM 31.9619 -86.8981 27° Northeast 121 139 5,300 -50 Level Atlanta Center
Tue 08:10:28 PM 31.9936 -86.8794 26° Northeast 121 139 5,200 -50 Descending Atlanta Center
Tue 08:11:28 PM 32.0253 -86.8608 26° Northeast 121 139 5,200  Level Atlanta Center
Tue 08:12:28 PM 32.0550 -86.8447 25° Northeast 121 139 5,200  Level Atlanta Center
Tue 08:13:28 PM 32.0844 -86.8286 25° Northeast 116 133 5,200 11 Level Atlanta Center
Tue 08:39:36 PM 32.9033 -86.3992 20° North 123 142 5,500 11 Climbing Atlanta Center
Tue 08:40:00 PM 33.2613 -86.3932 20° North  Level FlightAware Approximate
Tue 08:41:00 PM 33.3050 -86.3740 20° North  Level FlightAware Approximate
Tue 08:41:01 PM 32.9456 -86.3731 27° Northeast 126 145 5,500  Level Atlanta Center
Tue 08:41:49 PM 32.9728 -86.3639 16° North 126 145 5,500  Level Atlanta Center
Tue 08:42:00 PM 33.3486 -86.3549 20° North  Level FlightAware Approximate
Tue 08:42:38 PM 33.0003 -86.3572 11° North 126 145 5,500  Level Atlanta Center
Tue 08:43:00 PM 33.3922 -86.3357 20° North  Level FlightAware Approximate
Tue 08:43:38 PM 33.0339 -86.3433 19° North 125 144 5,500  Level Atlanta Center
Tue 08:44:00 PM 33.4358 -86.3166 20° North  Level FlightAware Approximate
Tue 08:44:39 PM 33.0675 -86.3242 26° Northeast 125 144 5,500  Level Atlanta Center
Tue 08:45:52 PM 33.1056 -86.2981 30° Northeast 127 146 5,500 -45 Level Atlanta Center
Tue 08:46:52 PM 33.1353 -86.2814 25° Northeast 127 146 5,400 -50 Descending Atlanta Center
Tue 08:47:53 PM 33.1667 -86.2622 27° Northeast 125 144 5,400  Level Atlanta Center
Tue 08:48:53 PM 33.1983 -86.2433 27° Northeast 125 144 5,400  Level Atlanta Center
Tue 08:49:54 PM 33.2300 -86.2292 21° North 127 146 5,400  Level Atlanta Center
Tue 08:50:55 PM 33.2639 -86.2078 28° Northeast 125 144 5,400 -52 Level Atlanta Center
Tue 08:51:49 PM 33.2931 -86.1983 15° North 127 146 5,300 -52 Descending Atlanta Center
Tue 08:52:50 PM 33.3267 -86.1869 16° North 127 146 5,300 -49 Level Atlanta Center
Tue 08:53:51 PM 33.3625 -86.1728 18° North 125 144 5,200 -43 Descending Atlanta Center
Tue 08:55:09 PM 33.4067 -86.1539 20° North 126 145 5,200  Level Atlanta Center
Tue 08:56:04 PM 33.4361 -86.1372 25° Northeast 127 146 5,200 -58 Level Atlanta Center
Tue 08:56:52 PM 33.4633 -86.1306 12° North 129 148 5,100 -55 Descending Atlanta Center
Tue 08:57:53 PM 33.4969 -86.1164 19° North 129 148 5,100 -49 Level Atlanta Center
Tue 08:58:54 PM 33.5306 -86.1072 13° North 127 146 5,000 -98 Descending Atlanta Center
Tue 09:00:00 PM 33.5795 -86.1355 334° Northwest  Level FlightAware Approximate
Tue 09:07:00 PM 33.9234 -86.0949 12° North  Level Estimated
Tue 09:08:00 PM 33.9667 -86.0833 12° North  Level FlightAware Approximate
Tue 09:09:00 PM 33.9726 -86.0891 321° Northwest  Level Estimated
Tue 09:10:00 PM 33.9726 -86.0891 North  Level Estimated
Tue 09:11:00 PM 33.9726 -86.0891 North  Level Estimated
Tue 09:12:00 PM 33.9726 -86.0891 North  Level Estimated
Tue 09:13:00 PM 33.9726 -86.0891 North  Level Estimated
Tue 09:14:00 PM 33.9726 -86.0891 North  Level Estimated
Tue 09:15:00 PM 33.9726 -86.0891 North  Level Estimated
Tue 09:16:00 PM 33.9726 -86.0891 North  Level Estimated
Tue 09:17:00 PM 33.9726 -86.0891 North  Level Estimated
Tue 09:18:00 PM 33.9726 -86.0891 North  Level Estimated
Tue 09:19:00 PM 33.9726 -86.0891 North  Level Estimated
Tue 09:20:00 PM 33.9726 -86.0891 North  Level Estimated
Tue 09:21:00 PM 33.9726 -86.0891 North  Level Estimated
Tue 09:22:00 PM 33.9726 -86.0891 North  Level Estimated
Tue 09:23:00 PM 33.9726 -86.0891 North  Level Estimated
Tue 09:24:00 PM 33.9726 -86.0891 North  Level Estimated
Tue 09:25:00 PM 33.9726 -86.0891 North  Level Estimated
Tue 09:26:00 PM 33.9726 -86.0891 North  Level Estimated
Tue 09:27:00 PM 33.9726 -86.0891 North  Level Estimated

Login

Don't have an account? Register now (free) for customized features, flight alerts, and more!